sensor_id;sensor_type;location;lat;lon;timestamp;P1;durP1;ratioP1;P2;durP2;ratioP2
43519;SDS011;46848;51.980;5.918;2024-01-30T00:01:15;13.20;;;8.97;;
43519;SDS011;46848;51.980;5.918;2024-01-30T00:03:41;13.80;;;9.57;;
43519;SDS011;46848;51.980;5.918;2024-01-30T00:06:10;14.60;;;10.47;;
43519;SDS011;46848;51.980;5.918;2024-01-30T00:08:37;15.17;;;9.93;;
43519;SDS011;46848;51.980;5.918;2024-01-30T00:11:02;14.57;;;9.50;;
43519;SDS011;46848;51.980;5.918;2024-01-30T00:13:28;17.40;;;10.10;;
43519;SDS011;46848;51.980;5.918;2024-01-30T00:15:53;13.93;;;8.50;;
43519;SDS011;46848;51.980;5.918;2024-01-30T00:18:19;12.43;;;8.63;;
43519;SDS011;46848;51.980;5.918;2024-01-30T00:20:44;13.40;;;9.00;;
43519;SDS011;46848;51.980;5.918;2024-01-30T00:23:10;13.97;;;8.63;;
43519;SDS011;46848;51.980;5.918;2024-01-30T00:25:36;13.80;;;9.00;;
43519;SDS011;46848;51.980;5.918;2024-01-30T00:28:02;13.33;;;9.33;;
43519;SDS011;46848;51.980;5.918;2024-01-30T00:30:27;14.00;;;8.47;;
43519;SDS011;46848;51.980;5.918;2024-01-30T00:32:53;11.50;;;8.03;;
43519;SDS011;46848;51.980;5.918;2024-01-30T00:35:19;10.97;;;8.00;;
43519;SDS011;46848;51.980;5.918;2024-01-30T00:37:47;12.17;;;8.23;;
43519;SDS011;46848;51.980;5.918;2024-01-30T00:40:12;10.27;;;7.60;;
43519;SDS011;46848;51.980;5.918;2024-01-30T00:42:41;13.27;;;8.30;;
43519;SDS011;46848;51.980;5.918;2024-01-30T00:45:11;13.70;;;8.17;;
43519;SDS011;46848;51.980;5.918;2024-01-30T00:47:38;12.50;;;8.27;;
43519;SDS011;46848;51.980;5.918;2024-01-30T00:50:03;11.17;;;7.80;;
43519;SDS011;46848;51.980;5.918;2024-01-30T00:52:30;11.70;;;7.53;;
43519;SDS011;46848;51.980;5.918;2024-01-30T00:54:55;13.23;;;8.17;;
43519;SDS011;46848;51.980;5.918;2024-01-30T00:57:21;10.23;;;7.20;;
43519;SDS011;46848;51.980;5.918;2024-01-30T00:59:46;10.50;;;7.17;;
43519;SDS011;46848;51.980;5.918;2024-01-30T01:02:12;12.57;;;7.10;;
43519;SDS011;46848;51.980;5.918;2024-01-30T01:04:38;12.03;;;7.97;;
43519;SDS011;46848;51.980;5.918;2024-01-30T01:07:04;13.03;;;7.63;;
43519;SDS011;46848;51.980;5.918;2024-01-30T01:09:29;12.07;;;7.80;;
43519;SDS011;46848;51.980;5.918;2024-01-30T01:11:55;12.37;;;8.10;;
43519;SDS011;46848;51.980;5.918;2024-01-30T01:14:20;12.40;;;9.00;;
43519;SDS011;46848;51.980;5.918;2024-01-30T01:16:46;14.17;;;9.30;;
43519;SDS011;46848;51.980;5.918;2024-01-30T01:19:11;13.93;;;9.63;;
43519;SDS011;46848;51.980;5.918;2024-01-30T01:21:37;16.53;;;10.60;;
43519;SDS011;46848;51.980;5.918;2024-01-30T01:24:03;15.53;;;10.47;;
43519;SDS011;46848;51.980;5.918;2024-01-30T01:26:28;14.40;;;9.27;;
43519;SDS011;46848;51.980;5.918;2024-01-30T01:28:55;13.70;;;8.47;;
43519;SDS011;46848;51.980;5.918;2024-01-30T01:31:20;14.70;;;8.07;;
43519;SDS011;46848;51.980;5.918;2024-01-30T01:33:49;12.10;;;8.77;;
43519;SDS011;46848;51.980;5.918;2024-01-30T01:36:15;14.77;;;8.73;;
43519;SDS011;46848;51.980;5.918;2024-01-30T01:38:40;12.80;;;9.03;;
43519;SDS011;46848;51.980;5.918;2024-01-30T01:41:06;13.17;;;8.70;;
43519;SDS011;46848;51.980;5.918;2024-01-30T01:43:31;14.83;;;8.63;;
43519;SDS011;46848;51.980;5.918;2024-01-30T01:45:57;13.67;;;8.70;;
43519;SDS011;46848;51.980;5.918;2024-01-30T01:48:23;12.00;;;8.77;;
43519;SDS011;46848;51.980;5.918;2024-01-30T01:50:48;13.07;;;8.63;;
43519;SDS011;46848;51.980;5.918;2024-01-30T01:53:14;10.93;;;7.40;;
43519;SDS011;46848;51.980;5.918;2024-01-30T01:55:41;12.67;;;7.90;;
43519;SDS011;46848;51.980;5.918;2024-01-30T01:58:07;13.37;;;8.67;;
43519;SDS011;46848;51.980;5.918;2024-01-30T02:00:34;11.20;;;7.47;;
43519;SDS011;46848;51.980;5.918;2024-01-30T02:03:00;12.03;;;7.37;;
43519;SDS011;46848;51.980;5.918;2024-01-30T02:05:27;10.47;;;7.07;;
43519;SDS011;46848;51.980;5.918;2024-01-30T02:07:53;11.10;;;7.47;;
43519;SDS011;46848;51.980;5.918;2024-01-30T02:10:19;11.87;;;7.10;;
43519;SDS011;46848;51.980;5.918;2024-01-30T02:12:45;12.83;;;8.37;;
43519;SDS011;46848;51.980;5.918;2024-01-30T02:15:13;11.23;;;7.97;;
43519;SDS011;46848;51.980;5.918;2024-01-30T02:17:39;11.00;;;7.10;;
43519;SDS011;46848;51.980;5.918;2024-01-30T02:20:04;11.20;;;7.50;;
43519;SDS011;46848;51.980;5.918;2024-01-30T02:22:30;10.80;;;7.23;;
43519;SDS011;46848;51.980;5.918;2024-01-30T02:24:59;12.03;;;7.73;;
43519;SDS011;46848;51.980;5.918;2024-01-30T02:27:24;13.13;;;8.23;;
43519;SDS011;46848;51.980;5.918;2024-01-30T02:29:50;11.10;;;6.60;;
43519;SDS011;46848;51.980;5.918;2024-01-30T02:32:16;11.23;;;7.77;;
43519;SDS011;46848;51.980;5.918;2024-01-30T02:34:41;11.77;;;7.70;;
43519;SDS011;46848;51.980;5.918;2024-01-30T02:37:07;11.00;;;7.40;;
43519;SDS011;46848;51.980;5.918;2024-01-30T02:39:33;10.00;;;7.23;;
43519;SDS011;46848;51.980;5.918;2024-01-30T02:41:58;10.10;;;7.40;;
43519;SDS011;46848;51.980;5.918;2024-01-30T02:44:24;11.47;;;7.43;;
43519;SDS011;46848;51.980;5.918;2024-01-30T02:46:49;11.07;;;7.60;;
43519;SDS011;46848;51.980;5.918;2024-01-30T02:49:15;10.23;;;6.80;;
43519;SDS011;46848;51.980;5.918;2024-01-30T02:51:41;9.87;;;6.13;;
43519;SDS011;46848;51.980;5.918;2024-01-30T02:54:06;9.73;;;6.70;;
43519;SDS011;46848;51.980;5.918;2024-01-30T02:56:32;10.43;;;7.30;;
43519;SDS011;46848;51.980;5.918;2024-01-30T02:58:57;9.50;;;6.77;;
43519;SDS011;46848;51.980;5.918;2024-01-30T03:01:23;10.03;;;6.83;;
43519;SDS011;46848;51.980;5.918;2024-01-30T03:04:13;9.33;;;6.30;;
43519;SDS011;46848;51.980;5.918;2024-01-30T03:06:39;9.37;;;6.87;;
43519;SDS011;46848;51.980;5.918;2024-01-30T03:09:10;8.20;;;6.23;;
43519;SDS011;46848;51.980;5.918;2024-01-30T03:11:35;11.90;;;6.63;;
43519;SDS011;46848;51.980;5.918;2024-01-30T03:14:01;12.30;;;6.80;;
43519;SDS011;46848;51.980;5.918;2024-01-30T03:16:26;10.90;;;7.10;;
43519;SDS011;46848;51.980;5.918;2024-01-30T03:18:52;10.97;;;7.53;;
43519;SDS011;46848;51.980;5.918;2024-01-30T03:21:18;10.63;;;7.43;;
43519;SDS011;46848;51.980;5.918;2024-01-30T03:23:43;9.73;;;7.10;;
43519;SDS011;46848;51.980;5.918;2024-01-30T03:26:09;10.03;;;7.33;;
43519;SDS011;46848;51.980;5.918;2024-01-30T03:28:36;9.97;;;7.70;;
43519;SDS011;46848;51.980;5.918;2024-01-30T03:31:01;10.13;;;7.20;;
43519;SDS011;46848;51.980;5.918;2024-01-30T03:33:27;10.97;;;6.90;;
43519;SDS011;46848;51.980;5.918;2024-01-30T03:35:53;10.57;;;7.33;;
43519;SDS011;46848;51.980;5.918;2024-01-30T03:38:18;10.00;;;6.80;;
43519;SDS011;46848;51.980;5.918;2024-01-30T03:40:44;11.10;;;7.73;;
43519;SDS011;46848;51.980;5.918;2024-01-30T03:43:09;9.87;;;7.03;;
43519;SDS011;46848;51.980;5.918;2024-01-30T03:45:35;9.87;;;7.03;;
43519;SDS011;46848;51.980;5.918;2024-01-30T03:48:01;10.10;;;6.43;;
43519;SDS011;46848;51.980;5.918;2024-01-30T03:50:26;10.50;;;6.87;;
43519;SDS011;46848;51.980;5.918;2024-01-30T03:52:53;11.27;;;7.30;;
43519;SDS011;46848;51.980;5.918;2024-01-30T03:55:18;11.80;;;7.93;;
43519;SDS011;46848;51.980;5.918;2024-01-30T03:57:44;8.70;;;6.63;;
43519;SDS011;46848;51.980;5.918;2024-01-30T04:00:09;10.47;;;6.70;;
43519;SDS011;46848;51.980;5.918;2024-01-30T04:02:35;10.37;;;6.73;;
43519;SDS011;46848;51.980;5.918;2024-01-30T04:05:01;8.40;;;6.03;;
43519;SDS011;46848;51.980;5.918;2024-01-30T04:07:26;8.70;;;6.10;;
43519;SDS011;46848;51.980;5.918;2024-01-30T04:09:52;10.77;;;7.27;;
43519;SDS011;46848;51.980;5.918;2024-01-30T04:12:17;8.03;;;5.73;;
43519;SDS011;46848;51.980;5.918;2024-01-30T04:14:43;8.73;;;5.57;;
43519;SDS011;46848;51.980;5.918;2024-01-30T04:17:09;9.10;;;5.93;;
43519;SDS011;46848;51.980;5.918;2024-01-30T04:19:37;8.87;;;6.23;;
43519;SDS011;46848;51.980;5.918;2024-01-30T04:22:03;9.80;;;6.77;;
43519;SDS011;46848;51.980;5.918;2024-01-30T04:24:28;10.60;;;6.60;;
43519;SDS011;46848;51.980;5.918;2024-01-30T04:26:54;11.13;;;7.07;;
43519;SDS011;46848;51.980;5.918;2024-01-30T04:29:19;9.37;;;6.63;;
43519;SDS011;46848;51.980;5.918;2024-01-30T04:31:45;12.07;;;7.17;;
43519;SDS011;46848;51.980;5.918;2024-01-30T04:34:11;7.47;;;5.80;;
43519;SDS011;46848;51.980;5.918;2024-01-30T04:36:36;9.40;;;6.33;;
43519;SDS011;46848;51.980;5.918;2024-01-30T04:39:02;8.87;;;6.00;;
43519;SDS011;46848;51.980;5.918;2024-01-30T04:41:28;8.33;;;6.47;;
43519;SDS011;46848;51.980;5.918;2024-01-30T04:43:56;9.30;;;6.30;;
43519;SDS011;46848;51.980;5.918;2024-01-30T04:46:22;8.67;;;6.80;;
43519;SDS011;46848;51.980;5.918;2024-01-30T04:48:47;11.50;;;6.63;;
43519;SDS011;46848;51.980;5.918;2024-01-30T04:51:13;11.27;;;6.40;;
43519;SDS011;46848;51.980;5.918;2024-01-30T04:53:38;9.40;;;6.50;;
43519;SDS011;46848;51.980;5.918;2024-01-30T04:56:05;10.50;;;6.47;;
43519;SDS011;46848;51.980;5.918;2024-01-30T04:58:30;7.80;;;5.97;;
43519;SDS011;46848;51.980;5.918;2024-01-30T05:00:56;9.57;;;6.53;;
43519;SDS011;46848;51.980;5.918;2024-01-30T05:03:22;10.87;;;7.07;;
43519;SDS011;46848;51.980;5.918;2024-01-30T05:05:48;9.87;;;6.43;;
43519;SDS011;46848;51.980;5.918;2024-01-30T05:08:14;9.50;;;6.43;;
43519;SDS011;46848;51.980;5.918;2024-01-30T05:10:40;9.20;;;6.60;;
43519;SDS011;46848;51.980;5.918;2024-01-30T05:13:05;11.17;;;7.07;;
43519;SDS011;46848;51.980;5.918;2024-01-30T05:15:31;9.47;;;6.13;;
43519;SDS011;46848;51.980;5.918;2024-01-30T05:17:56;8.93;;;6.20;;
43519;SDS011;46848;51.980;5.918;2024-01-30T05:20:22;10.43;;;6.53;;
43519;SDS011;46848;51.980;5.918;2024-01-30T05:22:47;12.20;;;6.73;;
43519;SDS011;46848;51.980;5.918;2024-01-30T05:25:13;9.67;;;6.33;;
43519;SDS011;46848;51.980;5.918;2024-01-30T05:27:39;8.53;;;5.73;;
43519;SDS011;46848;51.980;5.918;2024-01-30T05:30:05;9.73;;;6.63;;
43519;SDS011;46848;51.980;5.918;2024-01-30T05:32:31;8.80;;;6.00;;
43519;SDS011;46848;51.980;5.918;2024-01-30T05:34:57;9.00;;;6.03;;
43519;SDS011;46848;51.980;5.918;2024-01-30T05:37:23;9.73;;;6.20;;
43519;SDS011;46848;51.980;5.918;2024-01-30T05:39:48;8.57;;;6.13;;
43519;SDS011;46848;51.980;5.918;2024-01-30T05:42:14;9.83;;;6.53;;
43519;SDS011;46848;51.980;5.918;2024-01-30T05:44:41;9.07;;;5.73;;
43519;SDS011;46848;51.980;5.918;2024-01-30T05:47:07;11.20;;;5.83;;
43519;SDS011;46848;51.980;5.918;2024-01-30T05:49:33;9.67;;;6.60;;
43519;SDS011;46848;51.980;5.918;2024-01-30T05:51:58;10.70;;;7.03;;
43519;SDS011;46848;51.980;5.918;2024-01-30T05:54:24;10.37;;;6.70;;
43519;SDS011;46848;51.980;5.918;2024-01-30T05:56:49;10.13;;;6.87;;
43519;SDS011;46848;51.980;5.918;2024-01-30T05:59:15;8.80;;;6.10;;
43519;SDS011;46848;51.980;5.918;2024-01-30T06:01:47;9.53;;;6.10;;
43519;SDS011;46848;51.980;5.918;2024-01-30T06:04:13;10.27;;;5.73;;
43519;SDS011;46848;51.980;5.918;2024-01-30T06:06:39;7.93;;;5.63;;
43519;SDS011;46848;51.980;5.918;2024-01-30T06:09:05;11.03;;;6.40;;
43519;SDS011;46848;51.980;5.918;2024-01-30T06:11:31;10.20;;;5.63;;
43519;SDS011;46848;51.980;5.918;2024-01-30T06:13:57;8.77;;;5.80;;
43519;SDS011;46848;51.980;5.918;2024-01-30T06:16:22;8.87;;;6.03;;
43519;SDS011;46848;51.980;5.918;2024-01-30T06:18:48;9.33;;;5.93;;
43519;SDS011;46848;51.980;5.918;2024-01-30T06:21:14;8.60;;;6.10;;
43519;SDS011;46848;51.980;5.918;2024-01-30T06:23:39;7.53;;;5.87;;
43519;SDS011;46848;51.980;5.918;2024-01-30T06:26:06;8.50;;;5.70;;
43519;SDS011;46848;51.980;5.918;2024-01-30T06:28:32;9.77;;;6.23;;
43519;SDS011;46848;51.980;5.918;2024-01-30T06:30:58;9.37;;;5.63;;
43519;SDS011;46848;51.980;5.918;2024-01-30T06:33:26;8.17;;;5.80;;
43519;SDS011;46848;51.980;5.918;2024-01-30T06:35:51;8.67;;;6.00;;
43519;SDS011;46848;51.980;5.918;2024-01-30T06:38:17;7.93;;;5.37;;
43519;SDS011;46848;51.980;5.918;2024-01-30T06:40:42;8.43;;;5.20;;
43519;SDS011;46848;51.980;5.918;2024-01-30T06:43:08;8.40;;;5.00;;
43519;SDS011;46848;51.980;5.918;2024-01-30T06:45:34;9.57;;;5.50;;
43519;SDS011;46848;51.980;5.918;2024-01-30T06:48:00;13.20;;;5.10;;
43519;SDS011;46848;51.980;5.918;2024-01-30T06:50:25;9.33;;;5.70;;
43519;SDS011;46848;51.980;5.918;2024-01-30T06:52:51;9.10;;;5.60;;
43519;SDS011;46848;51.980;5.918;2024-01-30T06:55:17;13.03;;;6.73;;
43519;SDS011;46848;51.980;5.918;2024-01-30T06:57:43;9.77;;;6.07;;
43519;SDS011;46848;51.980;5.918;2024-01-30T07:00:09;7.97;;;5.03;;
43519;SDS011;46848;51.980;5.918;2024-01-30T07:02:35;8.47;;;5.67;;
43519;SDS011;46848;51.980;5.918;2024-01-30T07:05:01;7.47;;;4.97;;
43519;SDS011;46848;51.980;5.918;2024-01-30T07:07:27;9.50;;;5.47;;
43519;SDS011;46848;51.980;5.918;2024-01-30T07:09:53;7.67;;;4.83;;
43519;SDS011;46848;51.980;5.918;2024-01-30T07:12:22;6.93;;;4.53;;
43519;SDS011;46848;51.980;5.918;2024-01-30T07:14:49;7.63;;;4.57;;
43519;SDS011;46848;51.980;5.918;2024-01-30T07:17:15;8.37;;;4.20;;
43519;SDS011;46848;51.980;5.918;2024-01-30T07:19:41;6.97;;;4.20;;
43519;SDS011;46848;51.980;5.918;2024-01-30T07:22:06;7.03;;;4.10;;
43519;SDS011;46848;51.980;5.918;2024-01-30T07:24:32;6.53;;;4.23;;
43519;SDS011;46848;51.980;5.918;2024-01-30T07:26:58;7.70;;;4.37;;
43519;SDS011;46848;51.980;5.918;2024-01-30T07:29:24;6.32;;;4.13;;
43519;SDS011;46848;51.980;5.918;2024-01-30T07:31:49;6.85;;;4.10;;
43519;SDS011;46848;51.980;5.918;2024-01-30T07:34:15;5.93;;;4.00;;
43519;SDS011;46848;51.980;5.918;2024-01-30T07:36:40;8.65;;;4.22;;
43519;SDS011;46848;51.980;5.918;2024-01-30T07:39:06;7.13;;;4.03;;
43519;SDS011;46848;51.980;5.918;2024-01-30T07:41:32;7.95;;;4.20;;
43519;SDS011;46848;51.980;5.918;2024-01-30T07:43:58;5.95;;;3.60;;
43519;SDS011;46848;51.980;5.918;2024-01-30T07:46:23;6.68;;;4.05;;
43519;SDS011;46848;51.980;5.918;2024-01-30T07:48:49;8.50;;;4.82;;
43519;SDS011;46848;51.980;5.918;2024-01-30T07:51:14;9.55;;;5.00;;
43519;SDS011;46848;51.980;5.918;2024-01-30T07:53:40;8.02;;;4.53;;
43519;SDS011;46848;51.980;5.918;2024-01-30T07:56:06;7.32;;;4.10;;
43519;SDS011;46848;51.980;5.918;2024-01-30T07:58:32;6.57;;;3.75;;
43519;SDS011;46848;51.980;5.918;2024-01-30T08:00:58;12.23;;;4.32;;
43519;SDS011;46848;51.980;5.918;2024-01-30T08:03:25;5.82;;;3.85;;
43519;SDS011;46848;51.980;5.918;2024-01-30T08:05:50;7.32;;;4.28;;
43519;SDS011;46848;51.980;5.918;2024-01-30T08:08:16;8.88;;;3.80;;
43519;SDS011;46848;51.980;5.918;2024-01-30T08:10:42;5.63;;;3.80;;
43519;SDS011;46848;51.980;5.918;2024-01-30T08:13:08;6.40;;;4.05;;
43519;SDS011;46848;51.980;5.918;2024-01-30T08:15:34;5.53;;;3.53;;
43519;SDS011;46848;51.980;5.918;2024-01-30T08:17:59;7.00;;;4.00;;
43519;SDS011;46848;51.980;5.918;2024-01-30T08:20:25;7.00;;;4.10;;
43519;SDS011;46848;51.980;5.918;2024-01-30T08:22:51;7.07;;;3.95;;
43519;SDS011;46848;51.980;5.918;2024-01-30T08:25:17;7.72;;;4.18;;
43519;SDS011;46848;51.980;5.918;2024-01-30T08:27:43;6.00;;;3.65;;
43519;SDS011;46848;51.980;5.918;2024-01-30T08:30:09;6.88;;;4.00;;
43519;SDS011;46848;51.980;5.918;2024-01-30T08:32:35;8.02;;;3.80;;
43519;SDS011;46848;51.980;5.918;2024-01-30T08:35:01;5.97;;;4.05;;
43519;SDS011;46848;51.980;5.918;2024-01-30T08:37:30;7.90;;;4.32;;
43519;SDS011;46848;51.980;5.918;2024-01-30T08:39:55;6.07;;;3.78;;
43519;SDS011;46848;51.980;5.918;2024-01-30T08:42:23;7.95;;;3.90;;
43519;SDS011;46848;51.980;5.918;2024-01-30T08:44:49;8.65;;;4.35;;
43519;SDS011;46848;51.980;5.918;2024-01-30T08:47:16;7.43;;;4.22;;
43519;SDS011;46848;51.980;5.918;2024-01-30T08:49:42;6.88;;;3.97;;
43519;SDS011;46848;51.980;5.918;2024-01-30T08:52:09;6.45;;;3.65;;
43519;SDS011;46848;51.980;5.918;2024-01-30T08:54:37;6.38;;;4.38;;
43519;SDS011;46848;51.980;5.918;2024-01-30T08:57:03;9.32;;;4.43;;
43519;SDS011;46848;51.980;5.918;2024-01-30T08:59:29;7.35;;;3.92;;
43519;SDS011;46848;51.980;5.918;2024-01-30T09:01:55;7.07;;;4.13;;
43519;SDS011;46848;51.980;5.918;2024-01-30T09:04:22;7.82;;;4.07;;
43519;SDS011;46848;51.980;5.918;2024-01-30T09:06:48;7.80;;;3.88;;
43519;SDS011;46848;51.980;5.918;2024-01-30T09:09:14;7.13;;;4.32;;
43519;SDS011;46848;51.980;5.918;2024-01-30T09:11:40;6.95;;;4.18;;
43519;SDS011;46848;51.980;5.918;2024-01-30T09:14:05;5.82;;;3.83;;
43519;SDS011;46848;51.980;5.918;2024-01-30T09:16:31;7.78;;;4.50;;
43519;SDS011;46848;51.980;5.918;2024-01-30T09:18:57;7.68;;;4.40;;
43519;SDS011;46848;51.980;5.918;2024-01-30T09:21:22;7.55;;;4.80;;
43519;SDS011;46848;51.980;5.918;2024-01-30T09:23:48;6.15;;;4.15;;
43519;SDS011;46848;51.980;5.918;2024-01-30T09:26:14;9.23;;;4.72;;
43519;SDS011;46848;51.980;5.918;2024-01-30T09:28:39;6.97;;;4.18;;
43519;SDS011;46848;51.980;5.918;2024-01-30T09:31:10;8.20;;;4.50;;
43519;SDS011;46848;51.980;5.918;2024-01-30T09:33:36;7.55;;;4.28;;
43519;SDS011;46848;51.980;5.918;2024-01-30T09:36:02;8.70;;;4.88;;
43519;SDS011;46848;51.980;5.918;2024-01-30T09:38:27;8.55;;;4.90;;
43519;SDS011;46848;51.980;5.918;2024-01-30T09:40:54;14.30;;;5.15;;
43519;SDS011;46848;51.980;5.918;2024-01-30T09:43:22;7.93;;;4.25;;
43519;SDS011;46848;51.980;5.918;2024-01-30T09:45:50;7.78;;;4.65;;
43519;SDS011;46848;51.980;5.918;2024-01-30T09:48:16;8.63;;;4.15;;
43519;SDS011;46848;51.980;5.918;2024-01-30T09:50:41;6.35;;;4.57;;
43519;SDS011;46848;51.980;5.918;2024-01-30T09:53:10;8.90;;;4.78;;
43519;SDS011;46848;51.980;5.918;2024-01-30T09:55:38;7.90;;;4.70;;
43519;SDS011;46848;51.980;5.918;2024-01-30T09:58:07;8.50;;;4.35;;
43519;SDS011;46848;51.980;5.918;2024-01-30T10:00:33;12.23;;;5.63;;
43519;SDS011;46848;51.980;5.918;2024-01-30T10:02:59;9.88;;;5.15;;
43519;SDS011;46848;51.980;5.918;2024-01-30T10:05:26;9.38;;;4.60;;
43519;SDS011;46848;51.980;5.918;2024-01-30T10:07:53;7.35;;;5.03;;
43519;SDS011;46848;51.980;5.918;2024-01-30T10:10:21;7.32;;;4.57;;
43519;SDS011;46848;51.980;5.918;2024-01-30T10:12:48;6.28;;;4.25;;
43519;SDS011;46848;51.980;5.918;2024-01-30T10:15:14;10.60;;;4.85;;
43519;SDS011;46848;51.980;5.918;2024-01-30T10:17:40;9.48;;;5.25;;
43519;SDS011;46848;51.980;5.918;2024-01-30T10:20:05;10.82;;;5.13;;
43519;SDS011;46848;51.980;5.918;2024-01-30T10:22:32;9.75;;;5.35;;
43519;SDS011;46848;51.980;5.918;2024-01-30T10:24:58;10.07;;;5.13;;
43519;SDS011;46848;51.980;5.918;2024-01-30T10:27:28;9.90;;;4.88;;
43519;SDS011;46848;51.980;5.918;2024-01-30T10:29:54;11.15;;;5.28;;
43519;SDS011;46848;51.980;5.918;2024-01-30T10:32:20;11.43;;;5.55;;
43519;SDS011;46848;51.980;5.918;2024-01-30T10:34:46;8.32;;;5.25;;
43519;SDS011;46848;51.980;5.918;2024-01-30T10:37:12;11.45;;;5.70;;
43519;SDS011;46848;51.980;5.918;2024-01-30T10:39:41;8.40;;;5.18;;
43519;SDS011;46848;51.980;5.918;2024-01-30T10:42:14;9.68;;;5.20;;
43519;SDS011;46848;51.980;5.918;2024-01-30T10:47:13;10.35;;;5.28;;
43519;SDS011;46848;51.980;5.918;2024-01-30T10:49:43;10.25;;;5.10;;
43519;SDS011;46848;51.980;5.918;2024-01-30T10:52:11;9.07;;;4.50;;
43519;SDS011;46848;51.980;5.918;2024-01-30T10:54:38;9.18;;;4.78;;
43519;SDS011;46848;51.980;5.918;2024-01-30T10:57:05;9.27;;;5.20;;
43519;SDS011;46848;51.980;5.918;2024-01-30T10:59:32;8.77;;;5.28;;
43519;SDS011;46848;51.980;5.918;2024-01-30T11:01:58;9.30;;;4.82;;
43519;SDS011;46848;51.980;5.918;2024-01-30T11:04:25;8.73;;;5.65;;
43519;SDS011;46848;51.980;5.918;2024-01-30T11:06:50;8.77;;;5.18;;
43519;SDS011;46848;51.980;5.918;2024-01-30T11:09:17;8.40;;;5.10;;
43519;SDS011;46848;51.980;5.918;2024-01-30T11:16:40;9.90;;;5.30;;
43519;SDS011;46848;51.980;5.918;2024-01-30T11:19:10;10.73;;;5.18;;
43519;SDS011;46848;51.980;5.918;2024-01-30T11:21:42;10.13;;;5.22;;
43519;SDS011;46848;51.980;5.918;2024-01-30T11:26:34;9.45;;;5.13;;
43519;SDS011;46848;51.980;5.918;2024-01-30T11:29:03;7.18;;;4.75;;
43519;SDS011;46848;51.980;5.918;2024-01-30T11:31:29;13.70;;;5.07;;
43519;SDS011;46848;51.980;5.918;2024-01-30T11:33:55;10.70;;;4.88;;
43519;SDS011;46848;51.980;5.918;2024-01-30T11:36:23;7.82;;;4.38;;
43519;SDS011;46848;51.980;5.918;2024-01-30T11:38:52;9.38;;;4.60;;
43519;SDS011;46848;51.980;5.918;2024-01-30T11:41:18;8.48;;;5.63;;
43519;SDS011;46848;51.980;5.918;2024-01-30T11:43:54;9.35;;;4.97;;
43519;SDS011;46848;51.980;5.918;2024-01-30T11:46:20;10.20;;;4.40;;
43519;SDS011;46848;51.980;5.918;2024-01-30T11:48:45;9.43;;;4.53;;
43519;SDS011;46848;51.980;5.918;2024-01-30T11:51:12;11.73;;;5.18;;
43519;SDS011;46848;51.980;5.918;2024-01-30T11:53:38;7.47;;;4.50;;
43519;SDS011;46848;51.980;5.918;2024-01-30T11:56:05;7.93;;;4.55;;
43519;SDS011;46848;51.980;5.918;2024-01-30T11:58:31;9.27;;;4.43;;
43519;SDS011;46848;51.980;5.918;2024-01-30T12:00:57;9.68;;;5.15;;
43519;SDS011;46848;51.980;5.918;2024-01-30T12:03:23;8.07;;;4.85;;
43519;SDS011;46848;51.980;5.918;2024-01-30T12:05:54;10.23;;;4.88;;
43519;SDS011;46848;51.980;5.918;2024-01-30T12:08:22;9.20;;;5.20;;
43519;SDS011;46848;51.980;5.918;2024-01-30T12:10:54;8.68;;;4.65;;
43519;SDS011;46848;51.980;5.918;2024-01-30T12:13:21;9.18;;;5.40;;
43519;SDS011;46848;51.980;5.918;2024-01-30T12:15:46;7.70;;;4.70;;
43519;SDS011;46848;51.980;5.918;2024-01-30T12:18:12;7.07;;;4.60;;
43519;SDS011;46848;51.980;5.918;2024-01-30T12:20:38;7.82;;;4.57;;
43519;SDS011;46848;51.980;5.918;2024-01-30T12:23:03;9.85;;;5.35;;
43519;SDS011;46848;51.980;5.918;2024-01-30T12:25:29;8.60;;;4.20;;
43519;SDS011;46848;51.980;5.918;2024-01-30T12:27:54;8.20;;;4.68;;
43519;SDS011;46848;51.980;5.918;2024-01-30T12:30:20;9.40;;;5.45;;
43519;SDS011;46848;51.980;5.918;2024-01-30T12:32:46;11.57;;;5.30;;
43519;SDS011;46848;51.980;5.918;2024-01-30T12:35:15;7.75;;;4.75;;
43519;SDS011;46848;51.980;5.918;2024-01-30T12:37:45;10.48;;;4.93;;
43519;SDS011;46848;51.980;5.918;2024-01-30T12:40:13;7.40;;;4.05;;
43519;SDS011;46848;51.980;5.918;2024-01-30T12:42:40;7.90;;;3.90;;
43519;SDS011;46848;51.980;5.918;2024-01-30T12:45:07;6.85;;;3.22;;
43519;SDS011;46848;51.980;5.918;2024-01-30T12:47:33;6.30;;;2.80;;
43519;SDS011;46848;51.980;5.918;2024-01-30T12:49:59;6.07;;;2.72;;
43519;SDS011;46848;51.980;5.918;2024-01-30T12:52:25;6.32;;;2.35;;
43519;SDS011;46848;51.980;5.918;2024-01-30T12:54:51;6.03;;;1.75;;
43519;SDS011;46848;51.980;5.918;2024-01-30T12:57:17;4.85;;;1.77;;
43519;SDS011;46848;51.980;5.918;2024-01-30T12:59:43;4.75;;;1.70;;
43519;SDS011;46848;51.980;5.918;2024-01-30T13:02:10;5.20;;;1.50;;
43519;SDS011;46848;51.980;5.918;2024-01-30T13:04:39;3.25;;;1.30;;
43519;SDS011;46848;51.980;5.918;2024-01-30T13:07:05;4.22;;;1.30;;
43519;SDS011;46848;51.980;5.918;2024-01-30T13:09:31;3.80;;;1.30;;
43519;SDS011;46848;51.980;5.918;2024-01-30T13:11:57;5.70;;;1.25;;
43519;SDS011;46848;51.980;5.918;2024-01-30T13:14:23;4.47;;;1.60;;
43519;SDS011;46848;51.980;5.918;2024-01-30T13:16:49;3.72;;;1.02;;
43519;SDS011;46848;51.980;5.918;2024-01-30T13:19:15;3.90;;;1.25;;
43519;SDS011;46848;51.980;5.918;2024-01-30T13:21:42;1.63;;;0.85;;
43519;SDS011;46848;51.980;5.918;2024-01-30T13:24:08;4.05;;;1.23;;
43519;SDS011;46848;51.980;5.918;2024-01-30T13:26:34;4.40;;;1.00;;
43519;SDS011;46848;51.980;5.918;2024-01-30T13:29:00;4.05;;;1.00;;
43519;SDS011;46848;51.980;5.918;2024-01-30T13:31:25;5.38;;;1.20;;
43519;SDS011;46848;51.980;5.918;2024-01-30T13:33:52;3.70;;;0.80;;
43519;SDS011;46848;51.980;5.918;2024-01-30T13:36:18;4.03;;;1.08;;
43519;SDS011;46848;51.980;5.918;2024-01-30T13:38:44;2.80;;;0.88;;
43519;SDS011;46848;51.980;5.918;2024-01-30T13:41:09;3.55;;;0.80;;
43519;SDS011;46848;51.980;5.918;2024-01-30T13:43:35;1.85;;;0.50;;
43519;SDS011;46848;51.980;5.918;2024-01-30T13:46:00;3.08;;;0.60;;
43519;SDS011;46848;51.980;5.918;2024-01-30T13:48:26;2.78;;;0.82;;
43519;SDS011;46848;51.980;5.918;2024-01-30T13:50:52;2.10;;;0.60;;
43519;SDS011;46848;51.980;5.918;2024-01-30T13:53:18;1.83;;;0.80;;
43519;SDS011;46848;51.980;5.918;2024-01-30T13:55:44;4.70;;;1.00;;
43519;SDS011;46848;51.980;5.918;2024-01-30T13:58:10;4.45;;;1.17;;
43519;SDS011;46848;51.980;5.918;2024-01-30T14:00:35;3.85;;;1.20;;
43519;SDS011;46848;51.980;5.918;2024-01-30T14:03:01;5.10;;;1.40;;
43519;SDS011;46848;51.980;5.918;2024-01-30T14:05:28;6.35;;;1.33;;
43519;SDS011;46848;51.980;5.918;2024-01-30T14:07:53;6.90;;;1.30;;
43519;SDS011;46848;51.980;5.918;2024-01-30T14:10:19;6.53;;;1.60;;
43519;SDS011;46848;51.980;5.918;2024-01-30T14:12:45;4.88;;;1.88;;
43519;SDS011;46848;51.980;5.918;2024-01-30T14:15:13;6.00;;;2.10;;
43519;SDS011;46848;51.980;5.918;2024-01-30T14:17:43;5.18;;;1.98;;
43519;SDS011;46848;51.980;5.918;2024-01-30T14:20:10;6.72;;;2.38;;
43519;SDS011;46848;51.980;5.918;2024-01-30T14:22:36;4.55;;;2.13;;
43519;SDS011;46848;51.980;5.918;2024-01-30T14:25:02;7.45;;;1.90;;
43519;SDS011;46848;51.980;5.918;2024-01-30T14:27:30;10.15;;;2.17;;
43519;SDS011;46848;51.980;5.918;2024-01-30T14:29:56;5.18;;;2.40;;
43519;SDS011;46848;51.980;5.918;2024-01-30T14:32:23;7.57;;;2.17;;
43519;SDS011;46848;51.980;5.918;2024-01-30T14:34:49;7.43;;;2.30;;
43519;SDS011;46848;51.980;5.918;2024-01-30T14:37:15;8.90;;;2.10;;
43519;SDS011;46848;51.980;5.918;2024-01-30T14:39:41;7.03;;;2.10;;
43519;SDS011;46848;51.980;5.918;2024-01-30T14:42:07;4.82;;;1.90;;
43519;SDS011;46848;51.980;5.918;2024-01-30T14:44:33;3.22;;;1.50;;
43519;SDS011;46848;51.980;5.918;2024-01-30T14:46:58;4.25;;;1.90;;